Billings, MT (59102)

4:15 AM MDT on September 02, 2014 (GMT -0600)
Billings West | Change Station
CLOSE
Current Station
Personal Weather Station
Location: Billings, MT
Elevation: 3258 ft
Nearby Weather Stations

Elev 3258 ft 45.79 °N, 108.56 °W | Updated 2 seconds ago

Clear
Clear
51.1 °F
Feels Like 51.1 °F
N
-
Wind Variable Wind from North

Today
High -- | Low -- °F
--% Chance of Precip.
Yesterday
High -- | Low -- °F
Precip. -- in
6:36 AM 7:50 PM
Waxing Crescent, 50% visible
Pressure 29.85 in
Visibility 10.0 miles
Clouds Clear
Dew Point 39 °F
Humidity 63%
Rainfall -999.00 in
Snow Depth Not available.
UV 0 out of 12
Pollen 7.20 out of 12
Air Quality Not available.
Flu Activity Not available.
METAR KBIL 020953Z 22006KT 10SM CLR 13/06 A2992 RMK AO2 SLP108 T01280056

More Conditions Fewer Conditions

Pressure 29.85 in
Visibility 10.0 miles
Clouds Clear
Dew Point 39 °F
Humidity 63%
Rainfall -999.00 in
Snow Depth Not available.
UV 0 out of 12
Pollen 7.20 out of 12
Air Quality Not available.
Flu Activity Not available.
METAR KBIL 020953Z 22006KT 10SM CLR 13/06 A2992 RMK AO2 SLP108 T01280056

More Conditions Fewer Conditions

10-Day Weather Forecast

Almanac

Astronomy

Sep. 02, 2014 Rise Set
Actual Time 6:36 AM MDT 7:50 PM MDT
Civil Twilight 6:05 AM MDT 8:20 PM MDT
Nautical Twilight 5:28 AM MDT 8:57 PM MDT
Astronomical Twilight 4:49 AM MDT 9:36 PM MDT
Moon 2:46 PM MDT No Moon Set
Length of Visible Light 14h 15m
Length of Day
13h 13m
Tomorrow will be 3m 7s shorter.
Waxing Crescent, 50% of the Moon is Illuminated
Today
Waxing Crescent
Sep 2
First Quarter
Sep 8
Full
Sep 15
Last Quarter
Sep 24
New

Today's Extremes

State Highs State Lows

Community

WunderPhotos

Upload Photos

1,749,611 photos uploaded!

WunderBlogs® & News

Nearby

Snow Depth

Station Depth Elevation
Cole Creek 0 in 7850 ft
Burnt Mountain 0 in 5880 ft
Placer Basin 0 in 8830 ft
White Mill 2 in 8700 ft
Crystal Lake 0 in 6050 ft

Earthquake Activity

City Distance Mag. Time & Date
No recent earthquake activity has been reported nearby.
Minimum magnitude displayed is 2.5.

Coastal Water Temperatures

Place Temperature
No Stations Reporting

Nearby Weather Stations